sensor_id;sensor_type;location;lat;lon;timestamp;temperature;humidity
5415;DHT22;2730;51.512;7.504;2023-05-23T00:01:32;15.60;99.90
5415;DHT22;2730;51.512;7.504;2023-05-23T00:04:02;15.60;99.90
5415;DHT22;2730;51.512;7.504;2023-05-23T00:06:28;15.70;99.90
5415;DHT22;2730;51.512;7.504;2023-05-23T00:08:56;15.70;99.90
5415;DHT22;2730;51.512;7.504;2023-05-23T00:11:23;15.70;99.90
5415;DHT22;2730;51.512;7.504;2023-05-23T00:13:51;15.80;99.90
5415;DHT22;2730;51.512;7.504;2023-05-23T00:16:18;15.80;99.90
5415;DHT22;2730;51.512;7.504;2023-05-23T00:18:47;15.80;99.90
5415;DHT22;2730;51.512;7.504;2023-05-23T00:21:14;15.90;99.90
5415;DHT22;2730;51.512;7.504;2023-05-23T00:23:42;16.00;99.90
5415;DHT22;2730;51.512;7.504;2023-05-23T00:26:09;16.00;99.90
5415;DHT22;2730;51.512;7.504;2023-05-23T00:28:36;16.00;99.90
5415;DHT22;2730;51.512;7.504;2023-05-23T00:31:03;15.90;99.90
5415;DHT22;2730;51.512;7.504;2023-05-23T00:33:30;15.90;99.90
5415;DHT22;2730;51.512;7.504;2023-05-23T00:35:59;15.80;99.90
5415;DHT22;2730;51.512;7.504;2023-05-23T00:38:25;15.80;99.90
5415;DHT22;2730;51.512;7.504;2023-05-23T00:40:52;15.80;99.90
5415;DHT22;2730;51.512;7.504;2023-05-23T00:43:19;15.80;99.90
5415;DHT22;2730;51.512;7.504;2023-05-23T00:45:47;15.80;99.90
5415;DHT22;2730;51.512;7.504;2023-05-23T00:48:14;15.80;99.90
5415;DHT22;2730;51.512;7.504;2023-05-23T00:50:42;15.90;99.90
5415;DHT22;2730;51.512;7.504;2023-05-23T00:53:10;15.80;99.90
5415;DHT22;2730;51.512;7.504;2023-05-23T00:55:37;15.60;99.90
5415;DHT22;2730;51.512;7.504;2023-05-23T00:58:05;15.50;99.90
5415;DHT22;2730;51.512;7.504;2023-05-23T01:00:32;15.50;99.90
5415;DHT22;2730;51.512;7.504;2023-05-23T01:03:00;15.40;99.90
5415;DHT22;2730;51.512;7.504;2023-05-23T01:05:27;15.40;99.90
5415;DHT22;2730;51.512;7.504;2023-05-23T01:07:54;15.50;99.90
5415;DHT22;2730;51.512;7.504;2023-05-23T01:10:24;15.40;99.90
5415;DHT22;2730;51.512;7.504;2023-05-23T01:13:00;15.30;99.90
5415;DHT22;2730;51.512;7.504;2023-05-23T01:15:35;15.20;99.90
5415;DHT22;2730;51.512;7.504;2023-05-23T01:18:07;15.20;99.90
5415;DHT22;2730;51.512;7.504;2023-05-23T01:20:40;15.10;99.90
5415;DHT22;2730;51.512;7.504;2023-05-23T01:23:19;15.10;99.90
5415;DHT22;2730;51.512;7.504;2023-05-23T01:26:03;15.00;99.90
5415;DHT22;2730;51.512;7.504;2023-05-23T01:28:37;15.00;99.90
5415;DHT22;2730;51.512;7.504;2023-05-23T01:31:07;14.90;99.90
5415;DHT22;2730;51.512;7.504;2023-05-23T01:33:37;14.90;99.90
5415;DHT22;2730;51.512;7.504;2023-05-23T01:36:04;14.90;99.90
5415;DHT22;2730;51.512;7.504;2023-05-23T01:38:31;14.90;99.90
5415;DHT22;2730;51.512;7.504;2023-05-23T01:40:58;14.80;99.90
5415;DHT22;2730;51.512;7.504;2023-05-23T01:43:25;14.80;99.90
5415;DHT22;2730;51.512;7.504;2023-05-23T01:45:55;14.90;99.90
5415;DHT22;2730;51.512;7.504;2023-05-23T01:48:22;14.90;99.90
5415;DHT22;2730;51.512;7.504;2023-05-23T01:50:50;14.90;99.90
5415;DHT22;2730;51.512;7.504;2023-05-23T01:53:19;14.90;99.90
5415;DHT22;2730;51.512;7.504;2023-05-23T01:55:46;14.90;99.90
5415;DHT22;2730;51.512;7.504;2023-05-23T01:58:14;15.00;99.90
5415;DHT22;2730;51.512;7.504;2023-05-23T02:00:40;15.00;99.90
5415;DHT22;2730;51.512;7.504;2023-05-23T02:03:08;15.00;99.90
5415;DHT22;2730;51.512;7.504;2023-05-23T02:05:36;15.00;99.90
5415;DHT22;2730;51.512;7.504;2023-05-23T02:08:02;14.90;99.90
5415;DHT22;2730;51.512;7.504;2023-05-23T02:10:29;14.90;99.90
5415;DHT22;2730;51.512;7.504;2023-05-23T02:12:56;14.90;99.90
5415;DHT22;2730;51.512;7.504;2023-05-23T02:15:23;14.90;99.90
5415;DHT22;2730;51.512;7.504;2023-05-23T02:17:50;14.90;99.90
5415;DHT22;2730;51.512;7.504;2023-05-23T02:20:18;14.90;99.90
5415;DHT22;2730;51.512;7.504;2023-05-23T02:22:45;14.90;99.90
5415;DHT22;2730;51.512;7.504;2023-05-23T02:25:12;15.00;99.90
5415;DHT22;2730;51.512;7.504;2023-05-23T02:27:40;15.00;99.90
5415;DHT22;2730;51.512;7.504;2023-05-23T02:30:08;15.00;99.90
5415;DHT22;2730;51.512;7.504;2023-05-23T02:32:34;15.00;99.90
5415;DHT22;2730;51.512;7.504;2023-05-23T02:35:02;15.00;99.90
5415;DHT22;2730;51.512;7.504;2023-05-23T02:37:36;15.10;99.90
5415;DHT22;2730;51.512;7.504;2023-05-23T02:40:04;15.20;99.90
5415;DHT22;2730;51.512;7.504;2023-05-23T02:42:32;15.30;99.90
5415;DHT22;2730;51.512;7.504;2023-05-23T02:44:59;15.40;99.90
5415;DHT22;2730;51.512;7.504;2023-05-23T02:47:26;15.40;99.90
5415;DHT22;2730;51.512;7.504;2023-05-23T02:49:53;15.40;99.90
5415;DHT22;2730;51.512;7.504;2023-05-23T02:52:20;15.40;99.90
5415;DHT22;2730;51.512;7.504;2023-05-23T02:54:48;15.40;99.90
5415;DHT22;2730;51.512;7.504;2023-05-23T02:57:15;15.40;99.90
5415;DHT22;2730;51.512;7.504;2023-05-23T02:59:42;15.40;99.90
5415;DHT22;2730;51.512;7.504;2023-05-23T03:02:09;15.30;99.90
5415;DHT22;2730;51.512;7.504;2023-05-23T03:04:36;15.30;99.90
5415;DHT22;2730;51.512;7.504;2023-05-23T03:07:03;15.30;99.90
5415;DHT22;2730;51.512;7.504;2023-05-23T03:09:31;15.20;99.90
5415;DHT22;2730;51.512;7.504;2023-05-23T03:11:59;15.20;99.90
5415;DHT22;2730;51.512;7.504;2023-05-23T03:14:25;15.10;99.90
5415;DHT22;2730;51.512;7.504;2023-05-23T03:16:52;15.10;99.90
5415;DHT22;2730;51.512;7.504;2023-05-23T03:19:19;15.10;99.90
5415;DHT22;2730;51.512;7.504;2023-05-23T03:21:46;15.00;99.90
5415;DHT22;2730;51.512;7.504;2023-05-23T03:24:14;15.00;99.90
5415;DHT22;2730;51.512;7.504;2023-05-23T03:26:41;15.00;99.90
5415;DHT22;2730;51.512;7.504;2023-05-23T03:29:09;15.00;99.90
5415;DHT22;2730;51.512;7.504;2023-05-23T03:31:36;15.00;99.90
5415;DHT22;2730;51.512;7.504;2023-05-23T03:34:03;15.10;99.90
5415;DHT22;2730;51.512;7.504;2023-05-23T03:36:30;15.10;99.90
5415;DHT22;2730;51.512;7.504;2023-05-23T03:38:58;15.00;99.90
5415;DHT22;2730;51.512;7.504;2023-05-23T03:41:25;14.90;99.90
5415;DHT22;2730;51.512;7.504;2023-05-23T03:43:52;14.90;99.90
5415;DHT22;2730;51.512;7.504;2023-05-23T03:46:20;14.80;99.90
5415;DHT22;2730;51.512;7.504;2023-05-23T03:48:47;14.80;99.90
5415;DHT22;2730;51.512;7.504;2023-05-23T03:51:13;14.70;99.90
5415;DHT22;2730;51.512;7.504;2023-05-23T03:53:40;14.70;99.90
5415;DHT22;2730;51.512;7.504;2023-05-23T03:56:07;14.60;99.90
5415;DHT22;2730;51.512;7.504;2023-05-23T03:58:34;14.60;99.90
5415;DHT22;2730;51.512;7.504;2023-05-23T04:01:00;14.60;99.90
5415;DHT22;2730;51.512;7.504;2023-05-23T04:03:29;14.60;99.90
5415;DHT22;2730;51.512;7.504;2023-05-23T04:05:57;14.60;99.90
5415;DHT22;2730;51.512;7.504;2023-05-23T04:08:25;14.60;99.90
5415;DHT22;2730;51.512;7.504;2023-05-23T04:10:52;14.50;99.90
5415;DHT22;2730;51.512;7.504;2023-05-23T04:13:18;14.50;99.90
5415;DHT22;2730;51.512;7.504;2023-05-23T04:15:46;14.50;99.90
5415;DHT22;2730;51.512;7.504;2023-05-23T04:18:13;14.50;99.90
5415;DHT22;2730;51.512;7.504;2023-05-23T04:20:43;14.40;99.90
5415;DHT22;2730;51.512;7.504;2023-05-23T04:23:09;14.40;99.90
5415;DHT22;2730;51.512;7.504;2023-05-23T04:25:36;14.30;99.90
5415;DHT22;2730;51.512;7.504;2023-05-23T04:28:04;14.30;99.90
5415;DHT22;2730;51.512;7.504;2023-05-23T04:30:30;14.40;99.90
5415;DHT22;2730;51.512;7.504;2023-05-23T04:32:57;14.40;99.90
5415;DHT22;2730;51.512;7.504;2023-05-23T04:35:24;14.40;99.90
5415;DHT22;2730;51.512;7.504;2023-05-23T04:37:54;14.30;99.90
5415;DHT22;2730;51.512;7.504;2023-05-23T04:40:21;14.30;99.90
5415;DHT22;2730;51.512;7.504;2023-05-23T04:42:48;14.30;99.90
5415;DHT22;2730;51.512;7.504;2023-05-23T04:45:16;14.30;99.90
5415;DHT22;2730;51.512;7.504;2023-05-23T04:47:44;14.30;99.90
5415;DHT22;2730;51.512;7.504;2023-05-23T04:50:11;14.30;99.90
5415;DHT22;2730;51.512;7.504;2023-05-23T04:52:39;14.20;99.90
5415;DHT22;2730;51.512;7.504;2023-05-23T04:55:07;14.20;99.90
5415;DHT22;2730;51.512;7.504;2023-05-23T04:57:34;14.30;99.90
5415;DHT22;2730;51.512;7.504;2023-05-23T05:00:02;14.20;99.90
5415;DHT22;2730;51.512;7.504;2023-05-23T05:02:32;14.20;99.90
5415;DHT22;2730;51.512;7.504;2023-05-23T05:04:59;14.30;99.90
5415;DHT22;2730;51.512;7.504;2023-05-23T05:07:26;14.30;99.90
5415;DHT22;2730;51.512;7.504;2023-05-23T05:09:53;14.30;99.90
5415;DHT22;2730;51.512;7.504;2023-05-23T05:12:21;14.30;99.90
5415;DHT22;2730;51.512;7.504;2023-05-23T05:14:48;14.30;99.90
5415;DHT22;2730;51.512;7.504;2023-05-23T05:17:15;14.40;99.90
5415;DHT22;2730;51.512;7.504;2023-05-23T05:19:43;14.40;99.90
5415;DHT22;2730;51.512;7.504;2023-05-23T05:22:10;14.40;99.90
5415;DHT22;2730;51.512;7.504;2023-05-23T05:24:37;14.40;99.90
5415;DHT22;2730;51.512;7.504;2023-05-23T05:27:05;14.40;99.90
5415;DHT22;2730;51.512;7.504;2023-05-23T05:29:35;14.50;99.90
5415;DHT22;2730;51.512;7.504;2023-05-23T05:32:02;14.50;99.90
5415;DHT22;2730;51.512;7.504;2023-05-23T05:34:29;14.50;99.90
5415;DHT22;2730;51.512;7.504;2023-05-23T05:36:56;14.50;99.90
5415;DHT22;2730;51.512;7.504;2023-05-23T05:39:23;14.50;99.90
5415;DHT22;2730;51.512;7.504;2023-05-23T05:41:51;14.40;99.90
5415;DHT22;2730;51.512;7.504;2023-05-23T05:44:18;14.40;99.90
5415;DHT22;2730;51.512;7.504;2023-05-23T05:46:46;14.30;99.90
5415;DHT22;2730;51.512;7.504;2023-05-23T05:49:13;14.30;99.90
5415;DHT22;2730;51.512;7.504;2023-05-23T05:51:40;14.20;99.90
5415;DHT22;2730;51.512;7.504;2023-05-23T05:54:07;14.20;99.90
5415;DHT22;2730;51.512;7.504;2023-05-23T05:56:34;14.20;99.90
5415;DHT22;2730;51.512;7.504;2023-05-23T05:59:01;14.20;99.90
5415;DHT22;2730;51.512;7.504;2023-05-23T06:01:27;14.20;99.90
5415;DHT22;2730;51.512;7.504;2023-05-23T06:03:56;14.20;99.90
5415;DHT22;2730;51.512;7.504;2023-05-23T06:06:23;14.20;99.90
5415;DHT22;2730;51.512;7.504;2023-05-23T06:08:50;14.20;99.90
5415;DHT22;2730;51.512;7.504;2023-05-23T06:11:17;14.30;99.90
5415;DHT22;2730;51.512;7.504;2023-05-23T06:13:44;14.30;99.90
5415;DHT22;2730;51.512;7.504;2023-05-23T06:16:11;14.30;99.90
5415;DHT22;2730;51.512;7.504;2023-05-23T06:18:39;14.40;99.90
5415;DHT22;2730;51.512;7.504;2023-05-23T06:21:08;14.30;99.90
5415;DHT22;2730;51.512;7.504;2023-05-23T06:23:35;14.30;99.90
5415;DHT22;2730;51.512;7.504;2023-05-23T06:26:02;14.20;99.90
5415;DHT22;2730;51.512;7.504;2023-05-23T06:28:32;14.30;99.90
5415;DHT22;2730;51.512;7.504;2023-05-23T06:30:59;14.20;99.90
5415;DHT22;2730;51.512;7.504;2023-05-23T06:33:26;14.10;99.90
5415;DHT22;2730;51.512;7.504;2023-05-23T06:35:53;14.20;99.90
5415;DHT22;2730;51.512;7.504;2023-05-23T06:38:21;14.10;99.90
5415;DHT22;2730;51.512;7.504;2023-05-23T06:40:48;14.10;99.90
5415;DHT22;2730;51.512;7.504;2023-05-23T06:43:15;13.90;99.90
5415;DHT22;2730;51.512;7.504;2023-05-23T06:45:44;13.90;99.90
5415;DHT22;2730;51.512;7.504;2023-05-23T06:48:11;13.80;99.90
5415;DHT22;2730;51.512;7.504;2023-05-23T06:50:38;13.80;99.90
5415;DHT22;2730;51.512;7.504;2023-05-23T06:53:05;13.80;99.90
5415;DHT22;2730;51.512;7.504;2023-05-23T06:55:33;13.70;99.90
5415;DHT22;2730;51.512;7.504;2023-05-23T06:58:00;13.60;99.90
5415;DHT22;2730;51.512;7.504;2023-05-23T07:00:28;13.50;99.90
5415;DHT22;2730;51.512;7.504;2023-05-23T07:02:55;13.60;99.90
5415;DHT22;2730;51.512;7.504;2023-05-23T07:05:25;13.60;99.90
5415;DHT22;2730;51.512;7.504;2023-05-23T07:07:52;13.70;99.90
5415;DHT22;2730;51.512;7.504;2023-05-23T07:10:19;13.70;99.90
5415;DHT22;2730;51.512;7.504;2023-05-23T07:12:47;13.70;99.90
5415;DHT22;2730;51.512;7.504;2023-05-23T07:15:14;13.70;99.90
5415;DHT22;2730;51.512;7.504;2023-05-23T07:17:41;13.60;99.90
5415;DHT22;2730;51.512;7.504;2023-05-23T07:20:08;13.60;99.90
5415;DHT22;2730;51.512;7.504;2023-05-23T07:22:35;13.70;99.90
5415;DHT22;2730;51.512;7.504;2023-05-23T07:25:02;13.60;99.90
5415;DHT22;2730;51.512;7.504;2023-05-23T07:27:29;13.50;99.90
5415;DHT22;2730;51.512;7.504;2023-05-23T07:29:57;13.40;99.90
5415;DHT22;2730;51.512;7.504;2023-05-23T07:32:24;13.30;99.90
5415;DHT22;2730;51.512;7.504;2023-05-23T07:34:51;13.30;99.90
5415;DHT22;2730;51.512;7.504;2023-05-23T07:37:17;13.30;99.90
5415;DHT22;2730;51.512;7.504;2023-05-23T07:39:44;13.30;99.90
5415;DHT22;2730;51.512;7.504;2023-05-23T07:42:11;13.30;99.90
5415;DHT22;2730;51.512;7.504;2023-05-23T07:44:39;13.40;99.90
5415;DHT22;2730;51.512;7.504;2023-05-23T07:47:08;13.40;99.90
5415;DHT22;2730;51.512;7.504;2023-05-23T07:49:35;13.50;99.90
5415;DHT22;2730;51.512;7.504;2023-05-23T07:52:01;13.60;99.90
5415;DHT22;2730;51.512;7.504;2023-05-23T07:54:28;13.60;99.90
5415;DHT22;2730;51.512;7.504;2023-05-23T07:56:55;13.70;99.90
5415;DHT22;2730;51.512;7.504;2023-05-23T07:59:22;13.80;99.90
5415;DHT22;2730;51.512;7.504;2023-05-23T08:01:48;13.90;99.90
5415;DHT22;2730;51.512;7.504;2023-05-23T08:04:17;13.90;99.90
5415;DHT22;2730;51.512;7.504;2023-05-23T08:06:44;13.80;99.90
5415;DHT22;2730;51.512;7.504;2023-05-23T08:09:12;13.80;99.90
5415;DHT22;2730;51.512;7.504;2023-05-23T08:11:40;13.80;99.90
5415;DHT22;2730;51.512;7.504;2023-05-23T08:14:06;13.80;99.90
5415;DHT22;2730;51.512;7.504;2023-05-23T08:16:34;13.80;99.90
5415;DHT22;2730;51.512;7.504;2023-05-23T08:19:00;13.80;99.90
5415;DHT22;2730;51.512;7.504;2023-05-23T08:21:29;13.90;99.90
5415;DHT22;2730;51.512;7.504;2023-05-23T08:23:56;14.00;99.90
5415;DHT22;2730;51.512;7.504;2023-05-23T08:26:23;14.00;99.90
5415;DHT22;2730;51.512;7.504;2023-05-23T08:28:52;13.90;99.90
5415;DHT22;2730;51.512;7.504;2023-05-23T08:31:18;14.00;99.90
5415;DHT22;2730;51.512;7.504;2023-05-23T08:33:46;14.00;99.90
5415;DHT22;2730;51.512;7.504;2023-05-23T08:36:13;14.00;99.90
5415;DHT22;2730;51.512;7.504;2023-05-23T08:38:41;14.00;99.90
5415;DHT22;2730;51.512;7.504;2023-05-23T08:41:14;14.10;99.90
5415;DHT22;2730;51.512;7.504;2023-05-23T08:43:41;14.00;99.90
5415;DHT22;2730;51.512;7.504;2023-05-23T08:46:08;14.10;99.90
5415;DHT22;2730;51.512;7.504;2023-05-23T08:48:37;14.10;99.90
5415;DHT22;2730;51.512;7.504;2023-05-23T08:51:06;14.00;99.90
5415;DHT22;2730;51.512;7.504;2023-05-23T08:53:35;13.80;99.90
5415;DHT22;2730;51.512;7.504;2023-05-23T08:56:05;13.80;99.90
5415;DHT22;2730;51.512;7.504;2023-05-23T08:58:34;13.70;99.90
5415;DHT22;2730;51.512;7.504;2023-05-23T09:01:01;13.70;99.90
5415;DHT22;2730;51.512;7.504;2023-05-23T09:03:28;13.50;99.90
5415;DHT22;2730;51.512;7.504;2023-05-23T09:05:55;13.50;99.90
5415;DHT22;2730;51.512;7.504;2023-05-23T09:08:23;13.50;99.90
5415;DHT22;2730;51.512;7.504;2023-05-23T09:10:50;13.40;99.90
5415;DHT22;2730;51.512;7.504;2023-05-23T09:13:18;13.30;99.90
5415;DHT22;2730;51.512;7.504;2023-05-23T09:15:56;13.40;99.90
5415;DHT22;2730;51.512;7.504;2023-05-23T09:18:24;13.50;99.90
5415;DHT22;2730;51.512;7.504;2023-05-23T09:20:51;13.60;99.90
5415;DHT22;2730;51.512;7.504;2023-05-23T09:23:18;13.70;99.30
5415;DHT22;2730;51.512;7.504;2023-05-23T09:25:45;13.80;60.10
5415;DHT22;2730;51.512;7.504;2023-05-23T09:28:12;13.80;33.40
5415;DHT22;2730;51.512;7.504;2023-05-23T09:30:40;13.80;34.50
5415;DHT22;2730;51.512;7.504;2023-05-23T09:33:07;13.70;35.40
5415;DHT22;2730;51.512;7.504;2023-05-23T09:35:34;13.70;80.30
5415;DHT22;2730;51.512;7.504;2023-05-23T09:38:01;13.70;73.40
5415;DHT22;2730;51.512;7.504;2023-05-23T09:40:31;13.30;99.90
5415;DHT22;2730;51.512;7.504;2023-05-23T09:43:01;13.20;99.90
5415;DHT22;2730;51.512;7.504;2023-05-23T09:45:29;13.20;99.90
5415;DHT22;2730;51.512;7.504;2023-05-23T09:47:57;13.10;99.90
5415;DHT22;2730;51.512;7.504;2023-05-23T09:50:30;13.10;99.90
5415;DHT22;2730;51.512;7.504;2023-05-23T09:52:57;13.00;99.90
5415;DHT22;2730;51.512;7.504;2023-05-23T09:55:24;12.90;99.90
5415;DHT22;2730;51.512;7.504;2023-05-23T09:57:53;12.90;99.90
5415;DHT22;2730;51.512;7.504;2023-05-23T10:00:22;13.00;99.90
5415;DHT22;2730;51.512;7.504;2023-05-23T10:02:54;13.10;99.90
5415;DHT22;2730;51.512;7.504;2023-05-23T10:05:32;13.10;99.90
5415;DHT22;2730;51.512;7.504;2023-05-23T10:08:01;13.10;73.80
5415;DHT22;2730;51.512;7.504;2023-05-23T10:10:30;13.10;46.90
5415;DHT22;2730;51.512;7.504;2023-05-23T10:12:59;13.30;1.00
5415;DHT22;2730;51.512;7.504;2023-05-23T10:15:34;13.30;1.00
5415;DHT22;2730;51.512;7.504;2023-05-23T10:18:06;13.30;1.00
5415;DHT22;2730;51.512;7.504;2023-05-23T10:20:38;13.20;1.00
5415;DHT22;2730;51.512;7.504;2023-05-23T10:23:05;13.10;1.00
5415;DHT22;2730;51.512;7.504;2023-05-23T10:25:32;13.20;1.00
5415;DHT22;2730;51.512;7.504;2023-05-23T10:28:01;13.20;1.00
5415;DHT22;2730;51.512;7.504;2023-05-23T10:30:29;13.40;1.00
5415;DHT22;2730;51.512;7.504;2023-05-23T10:32:56;13.40;1.00
5415;DHT22;2730;51.512;7.504;2023-05-23T10:35:31;13.30;1.00
5415;DHT22;2730;51.512;7.504;2023-05-23T10:38:25;12.90;1.00
5415;DHT22;2730;51.512;7.504;2023-05-23T10:41:01;12.80;1.00
5415;DHT22;2730;51.512;7.504;2023-05-23T10:43:31;12.70;1.00
5415;DHT22;2730;51.512;7.504;2023-05-23T10:45:59;12.80;1.00
5415;DHT22;2730;51.512;7.504;2023-05-23T10:48:32;12.90;99.90
5415;DHT22;2730;51.512;7.504;2023-05-23T10:51:04;13.00;99.90
5415;DHT22;2730;51.512;7.504;2023-05-23T10:53:34;13.10;99.90
5415;DHT22;2730;51.512;7.504;2023-05-23T10:56:04;13.50;1.00
5415;DHT22;2730;51.512;7.504;2023-05-23T10:58:31;14.10;1.00
5415;DHT22;2730;51.512;7.504;2023-05-23T11:01:00;14.60;99.90
5415;DHT22;2730;51.512;7.504;2023-05-23T11:03:35;14.90;99.90
5415;DHT22;2730;51.512;7.504;2023-05-23T11:06:02;14.70;1.00
5415;DHT22;2730;51.512;7.504;2023-05-23T11:08:38;15.00;1.00
5415;DHT22;2730;51.512;7.504;2023-05-23T11:11:07;15.30;1.00
5415;DHT22;2730;51.512;7.504;2023-05-23T11:13:54;15.80;54.80
5415;DHT22;2730;51.512;7.504;2023-05-23T11:16:27;15.90;1.00
5415;DHT22;2730;51.512;7.504;2023-05-23T11:19:22;15.70;1.00
5415;DHT22;2730;51.512;7.504;2023-05-23T11:21:53;15.10;1.00
5415;DHT22;2730;51.512;7.504;2023-05-23T11:24:22;14.70;99.90
5415;DHT22;2730;51.512;7.504;2023-05-23T11:26:53;14.50;1.00
5415;DHT22;2730;51.512;7.504;2023-05-23T11:29:25;14.30;99.90
5415;DHT22;2730;51.512;7.504;2023-05-23T11:31:51;14.30;99.90
5415;DHT22;2730;51.512;7.504;2023-05-23T11:34:18;14.40;99.90
5415;DHT22;2730;51.512;7.504;2023-05-23T11:36:46;14.30;1.00
5415;DHT22;2730;51.512;7.504;2023-05-23T11:39:13;14.40;2.00
5415;DHT22;2730;51.512;7.504;2023-05-23T11:41:42;14.50;1.00
5415;DHT22;2730;51.512;7.504;2023-05-23T11:44:12;14.60;1.00
5415;DHT22;2730;51.512;7.504;2023-05-23T11:46:39;14.60;67.30
5415;DHT22;2730;51.512;7.504;2023-05-23T11:49:11;14.60;5.50
5415;DHT22;2730;51.512;7.504;2023-05-23T11:51:38;14.60;1.00
5415;DHT22;2730;51.512;7.504;2023-05-23T11:54:05;14.80;1.00
5415;DHT22;2730;51.512;7.504;2023-05-23T11:56:38;14.90;1.00
5415;DHT22;2730;51.512;7.504;2023-05-23T11:59:08;14.80;99.90
5415;DHT22;2730;51.512;7.504;2023-05-23T12:01:36;14.70;1.00
5415;DHT22;2730;51.512;7.504;2023-05-23T12:04:08;14.60;1.00
5415;DHT22;2730;51.512;7.504;2023-05-23T12:06:38;14.50;1.00
5415;DHT22;2730;51.512;7.504;2023-05-23T12:09:05;14.30;1.00
5415;DHT22;2730;51.512;7.504;2023-05-23T12:11:32;14.10;99.90
5415;DHT22;2730;51.512;7.504;2023-05-23T12:14:00;14.00;1.00
5415;DHT22;2730;51.512;7.504;2023-05-23T12:16:32;14.00;99.90
5415;DHT22;2730;51.512;7.504;2023-05-23T12:19:00;14.20;2.30
5415;DHT22;2730;51.512;7.504;2023-05-23T12:21:39;14.60;1.00
5415;DHT22;2730;51.512;7.504;2023-05-23T12:24:14;14.90;99.90
5415;DHT22;2730;51.512;7.504;2023-05-23T12:26:48;15.20;1.00
5415;DHT22;2730;51.512;7.504;2023-05-23T12:29:17;15.30;1.00
5415;DHT22;2730;51.512;7.504;2023-05-23T12:31:48;15.40;1.00
5415;DHT22;2730;51.512;7.504;2023-05-23T12:34:16;15.50;1.00
5415;DHT22;2730;51.512;7.504;2023-05-23T12:36:43;15.60;1.00
5415;DHT22;2730;51.512;7.504;2023-05-23T12:39:10;15.50;1.00
5415;DHT22;2730;51.512;7.504;2023-05-23T12:41:40;15.30;99.90
5415;DHT22;2730;51.512;7.504;2023-05-23T12:44:08;15.20;99.90
5415;DHT22;2730;51.512;7.504;2023-05-23T12:46:34;15.40;99.90
5415;DHT22;2730;51.512;7.504;2023-05-23T12:49:02;15.40;99.90
5415;DHT22;2730;51.512;7.504;2023-05-23T12:51:29;15.50;25.30
5415;DHT22;2730;51.512;7.504;2023-05-23T12:53:56;15.40;1.00
5415;DHT22;2730;51.512;7.504;2023-05-23T12:56:23;15.40;1.00
5415;DHT22;2730;51.512;7.504;2023-05-23T12:58:50;15.40;1.00
5415;DHT22;2730;51.512;7.504;2023-05-23T13:01:18;15.60;1.00
5415;DHT22;2730;51.512;7.504;2023-05-23T13:03:45;15.70;1.00
5415;DHT22;2730;51.512;7.504;2023-05-23T13:06:13;15.90;1.00
5415;DHT22;2730;51.512;7.504;2023-05-23T13:08:40;16.20;1.00
5415;DHT22;2730;51.512;7.504;2023-05-23T13:11:07;16.50;1.00
5415;DHT22;2730;51.512;7.504;2023-05-23T13:13:34;16.50;1.00
5415;DHT22;2730;51.512;7.504;2023-05-23T13:16:01;16.70;1.00
5415;DHT22;2730;51.512;7.504;2023-05-23T13:18:28;16.60;1.00
5415;DHT22;2730;51.512;7.504;2023-05-23T13:20:55;16.60;1.00
5415;DHT22;2730;51.512;7.504;2023-05-23T13:23:23;16.50;1.00
5415;DHT22;2730;51.512;7.504;2023-05-23T13:25:51;16.50;1.00
5415;DHT22;2730;51.512;7.504;2023-05-23T13:28:18;16.40;1.00
5415;DHT22;2730;51.512;7.504;2023-05-23T13:30:45;16.50;1.00
5415;DHT22;2730;51.512;7.504;2023-05-23T13:33:11;16.70;1.00
5415;DHT22;2730;51.512;7.504;2023-05-23T13:35:38;16.90;1.00
5415;DHT22;2730;51.512;7.504;2023-05-23T13:38:05;17.10;1.00
5415;DHT22;2730;51.512;7.504;2023-05-23T13:40:33;17.00;1.00
5415;DHT22;2730;51.512;7.504;2023-05-23T13:43:00;17.20;1.00
5415;DHT22;2730;51.512;7.504;2023-05-23T13:45:27;17.30;1.00
5415;DHT22;2730;51.512;7.504;2023-05-23T13:47:55;17.30;1.00
5415;DHT22;2730;51.512;7.504;2023-05-23T13:50:22;17.10;1.00
5415;DHT22;2730;51.512;7.504;2023-05-23T13:52:49;16.90;1.00
5415;DHT22;2730;51.512;7.504;2023-05-23T13:55:15;16.70;99.90
5415;DHT22;2730;51.512;7.504;2023-05-23T13:57:44;16.70;1.00
5415;DHT22;2730;51.512;7.504;2023-05-23T14:00:12;16.70;99.90
5415;DHT22;2730;51.512;7.504;2023-05-23T14:02:39;16.70;99.90
5415;DHT22;2730;51.512;7.504;2023-05-23T14:05:06;16.70;99.90
5415;DHT22;2730;51.512;7.504;2023-05-23T14:07:33;16.60;99.90
5415;DHT22;2730;51.512;7.504;2023-05-23T14:10:00;16.40;99.90
5415;DHT22;2730;51.512;7.504;2023-05-23T14:12:27;16.20;99.90
5415;DHT22;2730;51.512;7.504;2023-05-23T14:14:55;16.20;99.90
5415;DHT22;2730;51.512;7.504;2023-05-23T14:17:22;16.30;99.90
5415;DHT22;2730;51.512;7.504;2023-05-23T14:19:49;16.40;99.90
5415;DHT22;2730;51.512;7.504;2023-05-23T14:22:16;16.50;99.90
5415;DHT22;2730;51.512;7.504;2023-05-23T14:24:43;16.50;99.90
5415;DHT22;2730;51.512;7.504;2023-05-23T14:27:10;16.40;99.90
5415;DHT22;2730;51.512;7.504;2023-05-23T14:29:36;16.60;99.90
5415;DHT22;2730;51.512;7.504;2023-05-23T14:32:05;16.70;99.90
5415;DHT22;2730;51.512;7.504;2023-05-23T14:34:32;16.60;99.90
5415;DHT22;2730;51.512;7.504;2023-05-23T14:36:59;16.40;99.90
5415;DHT22;2730;51.512;7.504;2023-05-23T14:39:26;16.30;99.90
5415;DHT22;2730;51.512;7.504;2023-05-23T14:41:53;16.40;99.90
5415;DHT22;2730;51.512;7.504;2023-05-23T14:44:20;16.30;99.90
5415;DHT22;2730;51.512;7.504;2023-05-23T14:46:47;16.30;99.90
5415;DHT22;2730;51.512;7.504;2023-05-23T14:49:16;16.30;99.90
5415;DHT22;2730;51.512;7.504;2023-05-23T14:51:43;16.40;99.90
5415;DHT22;2730;51.512;7.504;2023-05-23T14:54:10;16.50;99.90
5415;DHT22;2730;51.512;7.504;2023-05-23T14:56:37;16.70;99.90
5415;DHT22;2730;51.512;7.504;2023-05-23T14:59:05;16.70;99.90
5415;DHT22;2730;51.512;7.504;2023-05-23T15:01:32;16.80;99.90
5415;DHT22;2730;51.512;7.504;2023-05-23T15:03:59;16.70;99.90
5415;DHT22;2730;51.512;7.504;2023-05-23T15:06:27;16.70;99.90
5415;DHT22;2730;51.512;7.504;2023-05-23T15:08:54;16.80;99.90
5415;DHT22;2730;51.512;7.504;2023-05-23T15:11:21;16.70;99.90
5415;DHT22;2730;51.512;7.504;2023-05-23T15:13:49;16.70;99.90
5415;DHT22;2730;51.512;7.504;2023-05-23T15:16:16;16.60;99.90
5415;DHT22;2730;51.512;7.504;2023-05-23T15:18:42;16.40;99.90
5415;DHT22;2730;51.512;7.504;2023-05-23T15:21:10;16.30;99.90
5415;DHT22;2730;51.512;7.504;2023-05-23T15:23:38;16.30;99.90
5415;DHT22;2730;51.512;7.504;2023-05-23T15:26:05;16.30;99.90
5415;DHT22;2730;51.512;7.504;2023-05-23T15:28:32;16.20;99.90
5415;DHT22;2730;51.512;7.504;2023-05-23T15:30:59;16.30;99.90
5415;DHT22;2730;51.512;7.504;2023-05-23T15:33:26;16.40;99.90
5415;DHT22;2730;51.512;7.504;2023-05-23T15:35:52;16.40;99.90
5415;DHT22;2730;51.512;7.504;2023-05-23T15:38:19;16.20;99.90
5415;DHT22;2730;51.512;7.504;2023-05-23T15:40:47;16.00;99.90
5415;DHT22;2730;51.512;7.504;2023-05-23T15:43:17;15.90;99.90
5415;DHT22;2730;51.512;7.504;2023-05-23T15:45:43;15.80;99.90
5415;DHT22;2730;51.512;7.504;2023-05-23T15:48:10;15.90;99.90
5415;DHT22;2730;51.512;7.504;2023-05-23T15:50:37;16.00;99.90
5415;DHT22;2730;51.512;7.504;2023-05-23T15:53:04;15.90;99.90
5415;DHT22;2730;51.512;7.504;2023-05-23T15:55:30;15.80;99.90
5415;DHT22;2730;51.512;7.504;2023-05-23T15:57:58;15.80;99.90
5415;DHT22;2730;51.512;7.504;2023-05-23T16:00:25;15.70;99.90
5415;DHT22;2730;51.512;7.504;2023-05-23T16:02:52;15.60;99.90
5415;DHT22;2730;51.512;7.504;2023-05-23T16:05:19;15.70;99.90
5415;DHT22;2730;51.512;7.504;2023-05-23T16:07:45;15.80;99.90
5415;DHT22;2730;51.512;7.504;2023-05-23T16:10:12;15.90;99.90